createdAt,value
2024-02-03T00:00:55.085Z,12.30
2024-02-03T00:03:24.997Z,12.30
2024-02-03T00:05:53.526Z,12.50
2024-02-03T00:08:22.054Z,12.60
2024-02-03T00:10:50.549Z,12.50
2024-02-03T00:13:19.378Z,12.20
2024-02-03T00:15:48.036Z,12.20
2024-02-03T00:18:16.684Z,12.20
2024-02-03T00:20:46.451Z,12.00
2024-02-03T00:23:14.948Z,12.20
2024-02-03T00:25:43.449Z,12.20
2024-02-03T00:28:11.982Z,12.00
2024-02-03T00:30:40.525Z,12.20
2024-02-03T00:33:09.897Z,12.10
2024-02-03T00:35:39.896Z,12.30
2024-02-03T00:38:09.807Z,12.30
2024-02-03T00:40:38.338Z,12.40
2024-02-03T00:43:07.030Z,12.30
2024-02-03T00:45:35.814Z,12.40
2024-02-03T00:48:04.598Z,12.20
2024-02-03T00:50:33.233Z,12.00
2024-02-03T00:53:02.078Z,12.40
2024-02-03T00:55:31.798Z,12.40
2024-02-03T00:58:00.356Z,12.40
2024-02-03T01:00:29.074Z,12.50
2024-02-03T01:02:58.162Z,12.30
2024-02-03T01:05:26.733Z,12.50
2024-02-03T01:07:57.039Z,12.50
2024-02-03T01:10:26.121Z,12.30
2024-02-03T01:12:56.184Z,12.10
2024-02-03T01:15:24.832Z,12.40
2024-02-03T01:17:53.562Z,12.20
2024-02-03T01:20:22.100Z,12.50
2024-02-03T01:22:50.660Z,12.30
2024-02-03T01:25:19.804Z,12.20
2024-02-03T01:27:48.567Z,12.50
2024-02-03T01:30:18.443Z,12.70
2024-02-03T01:32:49.132Z,12.70
2024-02-03T01:35:17.686Z,12.70
2024-02-03T01:37:46.198Z,12.60
2024-02-03T01:40:15.601Z,12.70
2024-02-03T01:42:44.493Z,12.70
2024-02-03T01:45:14.665Z,12.80
2024-02-03T01:47:44.633Z,12.70
2024-02-03T01:50:14.092Z,12.60
2024-02-03T01:52:44.227Z,12.80
2024-02-03T01:55:13.412Z,12.70
2024-02-03T01:57:45.988Z,12.80
2024-02-03T02:00:15.369Z,12.60
2024-02-03T02:02:45.272Z,12.60
2024-02-03T02:05:14.028Z,12.60
2024-02-03T02:07:45.508Z,12.60
2024-02-03T02:10:15.005Z,12.90
2024-02-03T02:12:44.013Z,12.80
2024-02-03T02:15:12.662Z,12.90
2024-02-03T02:17:41.249Z,12.60
2024-02-03T02:20:12.115Z,12.80
2024-02-03T02:22:40.620Z,13.00
2024-02-03T02:25:09.358Z,12.90
2024-02-03T02:27:37.888Z,12.60
2024-02-03T02:30:07.142Z,12.90
2024-02-03T02:32:35.980Z,12.90
2024-02-03T02:35:04.577Z,12.90
2024-02-03T02:37:34.243Z,12.90
2024-02-03T02:40:02.780Z,12.70
2024-02-03T02:42:31.530Z,12.80
2024-02-03T02:45:00.039Z,13.10
2024-02-03T02:47:28.658Z,13.50
2024-02-03T02:49:57.099Z,13.20
2024-02-03T02:52:26.224Z,13.00
2024-02-03T02:54:56.035Z,13.30
2024-02-03T02:57:24.640Z,13.30
2024-02-03T02:59:53.152Z,13.60
2024-02-03T03:02:21.714Z,13.50
2024-02-03T03:04:50.336Z,13.30
2024-02-03T03:07:20.072Z,13.20
2024-02-03T03:09:48.593Z,13.20
2024-02-03T03:12:18.703Z,13.30
2024-02-03T03:14:55.350Z,13.20
2024-02-03T03:17:23.821Z,13.40
2024-02-03T03:19:52.571Z,13.40
2024-02-03T03:22:21.089Z,13.30
2024-02-03T03:24:49.702Z,13.20
2024-02-03T03:27:18.275Z,13.30
2024-02-03T03:29:47.579Z,13.20
2024-02-03T03:32:17.726Z,13.00
2024-02-03T03:34:46.276Z,12.90
2024-02-03T03:37:14.776Z,13.10
2024-02-03T03:39:43.331Z,13.10
2024-02-03T03:42:11.754Z,12.80
2024-02-03T03:44:40.304Z,12.80
2024-02-03T03:47:08.733Z,12.90
2024-02-03T03:49:38.818Z,12.80
2024-02-03T03:52:07.878Z,12.80
2024-02-03T03:54:36.390Z,12.80
2024-02-03T03:57:05.087Z,12.80
2024-02-03T03:59:33.520Z,12.90
2024-02-03T04:02:01.797Z,12.90
2024-02-03T04:04:30.142Z,12.80
2024-02-03T04:06:59.934Z,12.90
2024-02-03T04:09:28.423Z,12.90
2024-02-03T04:11:57.315Z,13.00
2024-02-03T04:14:25.923Z,13.10
2024-02-03T04:16:54.586Z,13.00
2024-02-03T04:19:24.826Z,12.90
2024-02-03T04:21:53.671Z,12.90
2024-02-03T04:24:23.464Z,12.90
2024-02-03T04:26:52.013Z,12.80
2024-02-03T04:29:20.716Z,13.10
2024-02-03T04:31:49.586Z,13.10
2024-02-03T04:34:20.648Z,13.00
2024-02-03T04:36:49.445Z,13.10
2024-02-03T04:39:17.939Z,13.00
2024-02-03T04:41:48.069Z,12.80
2024-02-03T04:44:16.474Z,12.90
2024-02-03T04:46:47.022Z,12.80
2024-02-03T04:49:17.456Z,13.00
2024-02-03T04:51:46.104Z,13.30
2024-02-03T04:54:15.094Z,13.20
2024-02-03T04:56:43.698Z,13.20
2024-02-03T04:59:13.393Z,13.20
2024-02-03T05:01:41.810Z,13.00
2024-02-03T05:04:10.461Z,12.80
2024-02-03T05:06:39.113Z,12.80
2024-02-03T05:09:09.559Z,12.90
2024-02-03T05:11:38.193Z,12.70
2024-02-03T05:14:07.146Z,12.60
2024-02-03T05:16:36.825Z,12.60
2024-02-03T05:19:06.563Z,12.60
2024-02-03T05:21:35.263Z,12.50
2024-02-03T05:24:03.831Z,12.60
2024-02-03T05:26:32.387Z,12.80
2024-02-03T05:29:00.784Z,12.70
2024-02-03T05:31:29.200Z,12.50
2024-02-03T05:33:59.322Z,12.80
2024-02-03T05:36:28.007Z,12.90
2024-02-03T05:38:56.380Z,12.80
2024-02-03T05:41:24.899Z,13.00
2024-02-03T05:43:53.336Z,13.30
2024-02-03T05:46:21.764Z,12.90
2024-02-03T05:48:50.485Z,12.90
2024-02-03T05:51:20.705Z,12.90
2024-02-03T05:53:49.460Z,12.90
2024-02-03T05:56:18.023Z,12.90
2024-02-03T05:58:46.563Z,13.00
2024-02-03T06:01:15.107Z,12.90
2024-02-03T06:03:43.765Z,12.70
2024-02-03T06:06:22.544Z,12.70
2024-02-03T06:08:56.220Z,12.60
2024-02-03T06:11:24.627Z,12.70
2024-02-03T06:13:53.377Z,12.70
2024-02-03T06:16:21.756Z,12.40
2024-02-03T06:18:50.339Z,12.30
2024-02-03T06:21:18.916Z,12.50
2024-02-03T06:23:47.530Z,12.50
2024-02-03T06:26:17.418Z,12.60
2024-02-03T06:28:45.733Z,12.50
2024-02-03T06:31:14.271Z,12.40
2024-02-03T06:33:43.121Z,12.50
2024-02-03T06:36:11.836Z,12.60
2024-02-03T06:38:40.317Z,12.60
2024-02-03T06:41:11.414Z,12.90
2024-02-03T06:43:41.910Z,12.90
2024-02-03T06:46:10.382Z,13.00
2024-02-03T06:48:39.066Z,13.10
2024-02-03T06:51:07.695Z,13.10
2024-02-03T06:53:36.422Z,13.00
2024-02-03T06:56:05.080Z,12.80
2024-02-03T06:58:33.563Z,12.90
2024-02-03T07:01:05.271Z,12.80
2024-02-03T07:03:34.110Z,12.70
2024-02-03T07:06:02.661Z,12.70
2024-02-03T07:08:31.424Z,12.60
2024-02-03T07:11:00.018Z,12.50
2024-02-03T07:13:29.134Z,12.60
2024-02-03T07:15:57.769Z,12.60
2024-02-03T07:18:27.700Z,12.60
2024-02-03T07:20:56.288Z,12.50
2024-02-03T07:23:24.816Z,12.50
2024-02-03T07:25:53.238Z,12.50
2024-02-03T07:28:21.910Z,12.20
2024-02-03T07:30:50.286Z,12.30
2024-02-03T07:33:19.066Z,12.20
2024-02-03T07:35:49.289Z,12.30
2024-02-03T07:38:17.785Z,12.60
2024-02-03T07:40:46.416Z,12.30
2024-02-03T07:43:14.956Z,12.10
2024-02-03T07:45:43.555Z,12.00
2024-02-03T07:48:12.170Z,12.10
2024-02-03T07:50:40.522Z,12.10
2024-02-03T07:53:10.571Z,11.70
2024-02-03T07:55:39.013Z,11.70
2024-02-03T07:58:07.548Z,11.80
2024-02-03T08:00:36.189Z,11.80
2024-02-03T08:03:04.837Z,11.60
2024-02-03T08:05:33.335Z,11.50
2024-02-03T08:08:02.568Z,11.60
2024-02-03T08:10:32.177Z,11.70
2024-02-03T08:13:01.395Z,11.70
2024-02-03T08:15:29.886Z,11.80
2024-02-03T08:17:58.412Z,12.00
2024-02-03T08:20:26.966Z,12.20
2024-02-03T08:22:55.400Z,12.10
2024-02-03T08:25:24.608Z,11.90
2024-02-03T08:27:54.341Z,12.00
2024-02-03T08:30:23.648Z,12.00
2024-02-03T08:32:52.534Z,12.10
2024-02-03T08:35:21.072Z,12.00
2024-02-03T08:37:49.472Z,11.80
2024-02-03T08:40:19.909Z,12.00
2024-02-03T08:42:48.721Z,12.00
2024-02-03T08:45:18.697Z,12.00
2024-02-03T08:47:47.382Z,12.00
2024-02-03T08:50:15.916Z,11.80
2024-02-03T08:52:44.827Z,11.80
2024-02-03T08:55:13.149Z,11.70
2024-02-03T08:57:41.686Z,11.70
2024-02-03T09:00:11.408Z,11.80
2024-02-03T09:02:41.106Z,11.60
2024-02-03T09:05:10.168Z,11.50
2024-02-03T09:07:38.629Z,11.70
2024-02-03T09:10:07.841Z,11.70
2024-02-03T09:12:36.711Z,11.60
2024-02-03T09:15:05.623Z,11.70
2024-02-03T09:17:33.996Z,11.80
2024-02-03T09:20:05.631Z,11.80
2024-02-03T09:22:34.291Z,12.00
2024-02-03T09:25:02.740Z,12.00
2024-02-03T09:27:31.228Z,12.00
2024-02-03T09:29:59.821Z,12.00
2024-02-03T09:32:30.399Z,12.10
2024-02-03T09:34:59.117Z,12.00
2024-02-03T09:40:00.278Z,12.00
2024-02-03T09:42:29.301Z,11.80
2024-02-03T09:44:57.809Z,11.60
2024-02-03T09:47:30.741Z,11.80
2024-02-03T09:50:03.196Z,11.90
2024-02-03T09:52:33.689Z,12.00
2024-02-03T09:55:02.253Z,12.20
2024-02-03T09:57:30.701Z,12.10
2024-02-03T10:00:00.499Z,12.10
2024-02-03T10:02:29.640Z,12.30
2024-02-03T10:04:58.220Z,12.60
2024-02-03T10:07:26.805Z,12.50
2024-02-03T10:12:38.901Z,12.70
2024-02-03T10:15:08.402Z,12.60
2024-02-03T10:17:37.346Z,12.80
2024-02-03T10:20:08.291Z,12.80
2024-02-03T10:22:38.711Z,12.80
2024-02-03T10:25:14.502Z,13.00
2024-02-03T10:27:43.664Z,12.90
2024-02-03T10:30:13.047Z,12.90
2024-02-03T10:32:41.965Z,13.00
2024-02-03T10:35:11.059Z,13.00
2024-02-03T10:37:40.285Z,12.90
2024-02-03T10:40:09.798Z,13.00
2024-02-03T10:42:41.771Z,12.80
2024-02-03T10:45:13.746Z,12.90
2024-02-03T10:47:45.662Z,13.00
2024-02-03T10:50:16.222Z,12.90
2024-02-03T10:52:49.071Z,13.30
2024-02-03T10:55:19.418Z,13.20
2024-02-03T10:57:50.471Z,13.00
2024-02-03T11:00:19.960Z,13.30
2024-02-03T11:02:54.631Z,13.50
2024-02-03T11:05:26.120Z,13.50
2024-02-03T11:07:55.147Z,13.30
2024-02-03T11:10:30.516Z,13.30
2024-02-03T11:13:18.610Z,13.40
2024-02-03T11:15:47.054Z,13.30
2024-02-03T11:18:16.639Z,13.30
2024-02-03T11:20:45.488Z,13.60
2024-02-03T11:23:14.713Z,13.60
2024-02-03T11:25:47.937Z,13.70
2024-02-03T11:28:18.028Z,13.50
2024-02-03T11:30:46.710Z,13.60
2024-02-03T11:33:15.807Z,13.60
2024-02-03T11:35:46.856Z,13.70
2024-02-03T11:38:15.608Z,13.60
2024-02-03T11:40:45.153Z,13.40
2024-02-03T11:43:14.643Z,13.20
2024-02-03T11:45:47.564Z,13.20
2024-02-03T11:48:16.914Z,13.40
2024-02-03T11:50:45.481Z,13.50
2024-02-03T11:53:25.025Z,13.50
2024-02-03T11:55:55.109Z,13.20
2024-02-03T11:58:23.558Z,13.40
2024-02-03T12:01:02.973Z,13.50
2024-02-03T12:03:31.881Z,13.00
2024-02-03T12:06:00.710Z,12.80
2024-02-03T12:08:29.224Z,13.20
2024-02-03T12:10:57.705Z,13.10
2024-02-03T12:13:26.540Z,13.20
2024-02-03T12:15:56.239Z,13.60
2024-02-03T12:18:24.972Z,13.40
2024-02-03T12:20:56.060Z,13.60
2024-02-03T12:23:25.956Z,13.20
2024-02-03T12:25:54.622Z,12.90
2024-02-03T12:28:26.109Z,12.90
2024-02-03T12:31:00.548Z,13.10
2024-02-03T12:33:29.636Z,13.00
2024-02-03T12:35:58.839Z,12.80
2024-02-03T12:38:27.310Z,12.90
2024-02-03T12:40:55.826Z,12.80
2024-02-03T12:43:24.512Z,12.60
2024-02-03T12:45:52.938Z,12.60
2024-02-03T12:48:22.675Z,12.30
2024-02-03T12:50:53.225Z,12.50
2024-02-03T12:53:22.557Z,12.30
2024-02-03T12:55:51.100Z,12.20
2024-02-03T12:58:19.571Z,12.20
2024-02-03T13:00:48.412Z,12.50
2024-02-03T13:03:17.200Z,12.50
2024-02-03T13:05:48.813Z,12.70
2024-02-03T13:08:17.723Z,12.40
2024-02-03T13:10:46.801Z,12.80
2024-02-03T13:13:16.135Z,12.80
2024-02-03T13:15:44.843Z,12.50
2024-02-03T13:18:13.343Z,12.60
2024-02-03T13:20:42.026Z,12.90
2024-02-03T13:23:11.968Z,12.80
2024-02-03T13:25:40.413Z,12.80
2024-02-03T13:28:10.349Z,12.80
2024-02-03T13:30:39.018Z,12.70
2024-02-03T13:33:08.491Z,12.60
2024-02-03T13:35:37.606Z,12.50
2024-02-03T13:38:06.161Z,12.60
2024-02-03T13:40:35.933Z,12.50
2024-02-03T13:43:05.636Z,12.40
2024-02-03T13:45:34.925Z,12.10
2024-02-03T13:48:03.583Z,12.00
2024-02-03T13:50:32.069Z,11.90
2024-02-03T13:53:01.746Z,11.80
2024-02-03T13:55:31.061Z,11.90
2024-02-03T13:58:00.905Z,12.10
2024-02-03T14:00:29.463Z,11.90
2024-02-03T14:02:58.125Z,11.90
2024-02-03T14:05:27.074Z,11.70
2024-02-03T14:07:55.649Z,11.90
2024-02-03T14:10:24.257Z,11.80
2024-02-03T14:12:53.353Z,11.90
2024-02-03T14:15:23.681Z,12.20
2024-02-03T14:17:52.334Z,12.30
2024-02-03T14:20:20.826Z,12.60
2024-02-03T14:22:49.407Z,12.80
2024-02-03T14:25:19.029Z,12.70
2024-02-03T14:27:47.574Z,12.90
2024-02-03T14:30:16.354Z,13.20
2024-02-03T14:32:46.408Z,13.20
2024-02-03T14:35:15.130Z,13.30
2024-02-03T14:37:43.809Z,13.40
2024-02-03T14:40:13.420Z,13.30
2024-02-03T14:42:41.964Z,13.30
2024-02-03T14:45:11.860Z,13.30
2024-02-03T14:47:40.233Z,13.20
2024-02-03T14:50:11.190Z,13.30
2024-02-03T14:52:40.148Z,13.10
2024-02-03T14:55:09.647Z,13.10
2024-02-03T14:57:38.196Z,13.20
2024-02-03T15:00:08.938Z,13.20
2024-02-03T15:02:37.834Z,13.20
2024-02-03T15:05:07.171Z,13.50
2024-02-03T15:07:37.702Z,13.30
2024-02-03T15:10:06.893Z,13.30
2024-02-03T15:12:36.285Z,13.20
2024-02-03T15:15:06.127Z,13.10
2024-02-03T15:17:34.768Z,13.50
2024-02-03T15:20:03.532Z,13.50
2024-02-03T15:22:32.266Z,13.50
2024-02-03T15:25:02.301Z,13.20
2024-02-03T15:27:30.961Z,13.30
2024-02-03T15:29:59.562Z,13.30
2024-02-03T15:32:28.469Z,13.40
2024-02-03T15:34:56.887Z,13.20
2024-02-03T15:37:25.635Z,13.50
2024-02-03T15:39:54.244Z,13.20
2024-02-03T15:42:25.282Z,13.20
2024-02-03T15:44:53.831Z,13.00
2024-02-03T15:47:22.369Z,13.20
2024-02-03T15:49:51.115Z,13.10
2024-02-03T15:52:20.102Z,12.80
2024-02-03T15:54:48.675Z,12.70
2024-02-03T15:57:17.264Z,12.70
2024-02-03T15:59:47.057Z,12.40
2024-02-03T16:02:15.661Z,12.50
2024-02-03T16:04:44.462Z,12.40
2024-02-03T16:07:13.204Z,12.30
2024-02-03T16:09:41.769Z,12.50
2024-02-03T16:12:11.212Z,12.70
2024-02-03T16:14:39.731Z,12.70
2024-02-03T16:17:09.598Z,13.00
2024-02-03T16:19:38.218Z,13.00
2024-02-03T16:22:06.942Z,13.00
2024-02-03T16:24:35.574Z,13.20
2024-02-03T16:27:04.667Z,13.30
2024-02-03T16:29:33.366Z,13.30
2024-02-03T16:32:02.214Z,13.20
2024-02-03T16:34:32.167Z,13.30
2024-02-03T16:37:00.832Z,13.40
2024-02-03T16:39:30.666Z,13.00
2024-02-03T16:41:59.340Z,13.20
2024-02-03T16:44:27.744Z,13.10
2024-02-03T16:46:56.199Z,13.30
2024-02-03T16:49:24.833Z,13.40
2024-02-03T16:51:55.008Z,13.40
2024-02-03T16:54:23.512Z,13.20
2024-02-03T16:56:52.024Z,13.10
2024-02-03T16:59:20.459Z,13.10
2024-02-03T17:01:49.740Z,13.30
2024-02-03T17:04:18.747Z,13.40
2024-02-03T17:06:49.597Z,13.40
2024-02-03T17:09:20.687Z,13.50
2024-02-03T17:11:49.522Z,13.40
2024-02-03T17:14:18.157Z,13.50
2024-02-03T17:16:46.668Z,13.50
2024-02-03T17:19:15.324Z,13.30
2024-02-03T17:21:44.456Z,13.30
2024-02-03T17:24:13.856Z,13.60
2024-02-03T17:26:43.649Z,13.80
2024-02-03T17:29:12.081Z,13.90
2024-02-03T17:31:40.485Z,14.00
2024-02-03T17:34:09.490Z,14.00
2024-02-03T17:36:38.820Z,13.80
2024-02-03T17:39:07.452Z,14.00
2024-02-03T17:41:36.159Z,14.00
2024-02-03T17:44:06.113Z,14.10
2024-02-03T17:46:34.632Z,13.90
2024-02-03T17:49:04.256Z,13.90
2024-02-03T17:51:32.907Z,14.20
2024-02-03T17:54:01.679Z,14.00
2024-02-03T17:56:30.367Z,13.80
2024-02-03T17:58:58.795Z,13.70
2024-02-03T18:01:28.465Z,13.50
2024-02-03T18:03:57.071Z,13.50
2024-02-03T18:06:25.796Z,13.60
2024-02-03T18:08:54.985Z,13.60
2024-02-03T18:11:25.872Z,13.50
2024-02-03T18:13:54.658Z,13.50
2024-02-03T18:16:23.181Z,13.60
2024-02-03T18:18:52.908Z,13.60
2024-02-03T18:21:21.534Z,13.40
2024-02-03T18:23:50.216Z,13.70
2024-02-03T18:26:18.714Z,13.50
2024-02-03T18:28:47.348Z,13.70
2024-02-03T18:31:15.985Z,13.60
2024-02-03T18:33:46.119Z,13.70
2024-02-03T18:36:16.054Z,13.90
2024-02-03T18:38:44.542Z,13.90
2024-02-03T18:41:13.153Z,13.80
2024-02-03T18:43:41.526Z,13.70
2024-02-03T18:46:13.410Z,13.50
2024-02-03T18:48:42.178Z,13.50
2024-02-03T18:51:10.668Z,13.40
2024-02-03T18:53:40.675Z,13.30
2024-02-03T18:56:09.184Z,13.70
2024-02-03T18:58:39.080Z,13.50
2024-02-03T19:01:07.625Z,13.70
2024-02-03T19:03:36.293Z,13.70
2024-02-03T19:06:05.738Z,13.80
2024-02-03T19:08:35.067Z,14.00
2024-02-03T19:11:05.058Z,14.00
2024-02-03T19:13:33.821Z,14.20
2024-02-03T19:16:01.744Z,14.00
2024-02-03T19:18:30.276Z,13.90
2024-02-03T19:20:58.856Z,14.00
2024-02-03T19:23:28.101Z,14.00
2024-02-03T19:25:57.592Z,14.00
2024-02-03T19:28:27.288Z,14.10
2024-02-03T19:30:55.848Z,14.10
2024-02-03T19:33:24.809Z,13.90
2024-02-03T19:35:53.799Z,14.00
2024-02-03T19:38:22.176Z,13.80
2024-02-03T19:40:51.004Z,13.90
2024-02-03T19:43:19.685Z,13.90
2024-02-03T19:45:49.971Z,13.90
2024-02-03T19:48:18.606Z,14.00
2024-02-03T19:50:47.302Z,14.00
2024-02-03T19:53:17.435Z,14.00
2024-02-03T19:55:46.018Z,13.80
2024-02-03T19:58:14.608Z,13.90
2024-02-03T20:00:43.234Z,14.10
2024-02-03T20:03:13.238Z,14.00
2024-02-03T20:05:42.193Z,14.00
2024-02-03T20:08:10.948Z,14.10
2024-02-03T20:10:39.740Z,14.00
2024-02-03T20:13:08.846Z,14.20
2024-02-03T20:15:37.352Z,14.30
2024-02-03T20:18:06.362Z,14.40
2024-02-03T20:20:36.282Z,14.50
2024-02-03T20:23:06.818Z,14.20
2024-02-03T20:25:35.466Z,14.20
2024-02-03T20:28:05.181Z,14.10
2024-02-03T20:30:34.979Z,14.20
2024-02-03T20:33:04.016Z,14.10
2024-02-03T20:35:33.835Z,14.20
2024-02-03T20:38:04.664Z,14.10
2024-02-03T20:40:33.151Z,14.20
2024-02-03T20:43:01.835Z,13.90
2024-02-03T20:45:30.507Z,13.80
2024-02-03T20:47:59.040Z,14.00
2024-02-03T20:50:27.932Z,14.10
2024-02-03T20:52:56.931Z,14.10
2024-02-03T20:55:26.703Z,14.20
2024-02-03T20:57:55.528Z,14.20
2024-02-03T21:00:24.737Z,14.20
2024-02-03T21:02:53.549Z,14.20
2024-02-03T21:05:22.151Z,13.90
2024-02-03T21:07:52.955Z,14.00
2024-02-03T21:10:21.549Z,13.80
2024-02-03T21:12:51.662Z,13.90
2024-02-03T21:15:20.248Z,14.00
2024-02-03T21:17:48.811Z,13.80
2024-02-03T21:20:19.678Z,14.00
2024-02-03T21:22:49.116Z,14.10
2024-02-03T21:25:17.940Z,14.20
2024-02-03T21:27:46.588Z,14.10
2024-02-03T21:30:16.393Z,14.00
2024-02-03T21:32:45.226Z,13.90
2024-02-03T21:35:13.942Z,13.80
2024-02-03T21:37:42.599Z,14.10
2024-02-03T21:40:12.050Z,14.20
2024-02-03T21:42:40.617Z,14.30
2024-02-03T21:45:09.805Z,14.20
2024-02-03T21:47:39.468Z,14.10
2024-02-03T21:50:08.266Z,13.90
2024-02-03T21:52:38.260Z,14.30
2024-02-03T21:55:07.229Z,14.10
2024-02-03T21:57:35.837Z,14.10
2024-02-03T22:00:05.610Z,14.10
2024-02-03T22:02:34.175Z,14.30
2024-02-03T22:05:03.971Z,14.30
2024-02-03T22:07:32.653Z,14.20
2024-02-03T22:10:01.262Z,14.20
2024-02-03T22:12:30.782Z,14.30
2024-02-03T22:14:59.629Z,14.10
2024-02-03T22:17:28.190Z,14.00
2024-02-03T22:19:56.986Z,14.00
2024-02-03T22:22:27.133Z,14.10
2024-02-03T22:24:55.701Z,14.40
2024-02-03T22:27:24.204Z,14.50
2024-02-03T22:29:52.960Z,14.30
2024-02-03T22:32:21.640Z,14.40
2024-02-03T22:34:50.292Z,14.30
2024-02-03T22:37:18.823Z,14.20
2024-02-03T22:39:49.199Z,14.20
2024-02-03T22:42:17.678Z,14.20
2024-02-03T22:44:46.106Z,14.10
2024-02-03T22:47:14.704Z,13.80
2024-02-03T22:49:43.494Z,13.90
2024-02-03T22:52:12.312Z,14.00
2024-02-03T22:54:40.879Z,13.70
2024-02-03T22:57:10.863Z,13.80
2024-02-03T22:59:39.346Z,13.90
2024-02-03T23:02:07.885Z,13.50
2024-02-03T23:04:36.369Z,13.60
2024-02-03T23:07:05.115Z,13.70
2024-02-03T23:09:33.819Z,13.50
2024-02-03T23:12:02.976Z,13.50
2024-02-03T23:14:32.815Z,13.70
2024-02-03T23:17:01.228Z,13.50
2024-02-03T23:19:29.739Z,14.00
2024-02-03T23:21:58.347Z,13.60
2024-02-03T23:24:26.952Z,13.40
2024-02-03T23:26:55.579Z,13.10
2024-02-03T23:29:24.118Z,13.20
2024-02-03T23:31:54.176Z,13.40
2024-02-03T23:34:22.727Z,13.40
2024-02-03T23:36:51.331Z,12.90
2024-02-03T23:39:20.036Z,12.90
2024-02-03T23:41:49.581Z,13.20
2024-02-03T23:44:18.096Z,13.10
2024-02-03T23:46:46.449Z,13.20
2024-02-03T23:49:16.193Z,12.90
2024-02-03T23:51:44.983Z,13.30
2024-02-03T23:54:13.496Z,13.00
2024-02-03T23:56:42.578Z,12.70
2024-02-03T23:59:10.977Z,13.00
